createdAt,value
2023-03-04T00:02:27.400Z,30.15
2023-03-04T00:04:54.938Z,27.65
2023-03-04T00:07:24.750Z,29.38
2023-03-04T00:09:52.760Z,34.00
2023-03-04T00:12:20.230Z,31.27
2023-03-04T00:14:47.635Z,26.20
2023-03-04T00:17:15.479Z,29.77
2023-03-04T00:19:43.715Z,29.30
2023-03-04T00:22:11.239Z,31.08
2023-03-04T00:24:38.355Z,37.13
2023-03-04T00:27:06.195Z,29.48
2023-03-04T00:29:33.396Z,34.20
2023-03-04T00:32:00.999Z,28.95
2023-03-04T00:34:28.281Z,31.88
2023-03-04T00:37:01.639Z,30.17
2023-03-04T00:39:29.076Z,29.83
2023-03-04T00:41:57.551Z,32.45
2023-03-04T00:44:24.877Z,27.55
2023-03-04T00:46:51.957Z,32.97
2023-03-04T00:49:19.148Z,31.48
2023-03-04T00:51:47.152Z,30.83
2023-03-04T00:54:14.350Z,26.55
2023-03-04T00:56:41.390Z,31.17
2023-03-04T00:59:08.595Z,30.48
2023-03-04T01:01:35.580Z,32.75
2023-03-04T01:04:02.844Z,31.67
2023-03-04T01:06:29.998Z,35.63
2023-03-04T01:08:57.071Z,33.67
2023-03-04T01:11:24.364Z,30.73
2023-03-04T01:13:51.221Z,31.70
2023-03-04T01:16:18.240Z,29.80
2023-03-04T01:18:47.390Z,30.50
2023-03-04T01:21:14.749Z,25.35
2023-03-04T01:23:41.790Z,30.65
2023-03-04T01:26:09.146Z,33.15
2023-03-04T01:28:36.156Z,32.60
2023-03-04T01:31:04.393Z,32.30
2023-03-04T01:33:31.788Z,34.97
2023-03-04T01:35:59.003Z,26.65
2023-03-04T01:38:26.602Z,26.88
2023-03-04T01:40:54.037Z,27.58
2023-03-04T01:43:27.667Z,32.92
2023-03-04T01:45:56.148Z,30.73
2023-03-04T01:48:31.405Z,31.55
2023-03-04T01:50:59.709Z,34.33
2023-03-04T01:53:28.292Z,27.58
2023-03-04T01:55:57.953Z,27.45
2023-03-04T01:58:32.997Z,30.02
2023-03-04T02:01:00.001Z,33.15
2023-03-04T02:03:27.605Z,31.75
2023-03-04T02:05:55.952Z,33.20
2023-03-04T02:08:25.098Z,29.17
2023-03-04T02:10:53.152Z,31.17
2023-03-04T02:13:20.128Z,35.30
2023-03-04T02:15:47.807Z,31.83
2023-03-04T02:18:24.034Z,29.63
2023-03-04T02:21:08.680Z,28.88
2023-03-04T02:23:46.273Z,32.05
2023-03-04T02:26:19.366Z,27.02
2023-03-04T02:28:51.393Z,29.70
2023-03-04T02:31:40.229Z,27.80
2023-03-04T02:34:16.039Z,28.85
2023-03-04T02:36:44.693Z,28.55
2023-03-04T02:39:13.638Z,32.20
2023-03-04T02:41:40.991Z,30.60
2023-03-04T02:44:28.282Z,27.35
2023-03-04T02:46:56.766Z,26.33
2023-03-04T02:49:27.635Z,28.13
2023-03-04T02:52:15.636Z,27.70
2023-03-04T02:54:42.834Z,30.17
2023-03-04T02:57:12.653Z,27.38
2023-03-04T02:59:43.098Z,27.85
2023-03-04T03:02:15.102Z,25.92
2023-03-04T03:04:42.595Z,24.30
2023-03-04T03:07:13.238Z,27.48
2023-03-04T03:09:40.417Z,26.00
2023-03-04T03:12:07.496Z,31.02
2023-03-04T03:14:34.444Z,25.80
2023-03-04T03:17:03.648Z,24.33
2023-03-04T03:19:31.740Z,25.73
2023-03-04T03:22:01.136Z,23.88
2023-03-04T03:24:28.220Z,26.55
2023-03-04T03:26:56.214Z,22.83
2023-03-04T03:29:24.281Z,24.65
2023-03-04T03:31:51.597Z,28.35
2023-03-04T03:34:20.769Z,24.80
2023-03-04T03:36:49.232Z,25.85
2023-03-04T03:39:16.683Z,26.70
2023-03-04T03:41:43.792Z,25.38
2023-03-04T03:44:10.812Z,22.08
2023-03-04T03:46:37.725Z,24.55
2023-03-04T03:49:04.800Z,23.65
2023-03-04T03:51:31.734Z,25.02
2023-03-04T03:53:58.832Z,25.10
2023-03-04T03:56:25.916Z,22.05
2023-03-04T03:58:53.004Z,22.50
2023-03-04T04:01:20.038Z,24.70
2023-03-04T04:03:47.153Z,23.80
2023-03-04T04:06:14.444Z,24.80
2023-03-04T04:08:41.633Z,22.20
2023-03-04T04:11:12.913Z,23.83
2023-03-04T04:13:40.146Z,25.15
2023-03-04T04:16:07.877Z,28.70
2023-03-04T04:18:34.959Z,26.17
2023-03-04T04:21:01.977Z,24.73
2023-03-04T04:23:29.073Z,29.42
2023-03-04T04:25:57.394Z,22.58
2023-03-04T04:28:25.000Z,22.88
2023-03-04T04:30:52.005Z,24.88
2023-03-04T04:33:19.082Z,26.90
2023-03-04T04:35:46.220Z,27.95
2023-03-04T04:38:13.391Z,30.35
2023-03-04T04:40:40.358Z,30.35
2023-03-04T04:43:07.471Z,30.73
2023-03-04T04:45:34.920Z,27.20
2023-03-04T04:48:02.034Z,29.13
2023-03-04T04:50:30.746Z,28.08
2023-03-04T04:52:59.714Z,29.77
2023-03-04T04:55:27.309Z,26.58
2023-03-04T04:57:54.351Z,28.23
2023-03-04T05:00:21.436Z,29.55
2023-03-04T05:02:48.286Z,25.42
2023-03-04T05:05:15.302Z,28.70
2023-03-04T05:07:42.113Z,28.55
2023-03-04T05:10:10.136Z,23.92
2023-03-04T05:12:37.396Z,27.00
2023-03-04T05:15:04.674Z,30.97
2023-03-04T05:17:31.743Z,30.50
2023-03-04T05:19:58.836Z,24.90
2023-03-04T05:22:26.253Z,25.10
2023-03-04T05:24:53.268Z,31.40
2023-03-04T05:27:20.474Z,24.60
2023-03-04T05:29:47.754Z,26.57
2023-03-04T05:32:14.936Z,24.50
2023-03-04T05:34:41.983Z,29.83
2023-03-04T05:37:09.264Z,26.77
2023-03-04T05:39:36.383Z,27.83
2023-03-04T05:42:03.825Z,25.85
2023-03-04T05:44:31.027Z,26.83
2023-03-04T05:46:58.146Z,28.65
2023-03-04T05:49:25.429Z,25.25
2023-03-04T05:51:53.584Z,28.02
2023-03-04T05:54:21.832Z,24.02
2023-03-04T05:56:49.117Z,25.70
2023-03-04T05:59:20.903Z,27.60
2023-03-04T06:01:48.874Z,28.80
2023-03-04T06:04:16.546Z,25.23
2023-03-04T06:06:43.824Z,25.33
2023-03-04T06:09:10.872Z,28.00
2023-03-04T06:11:38.229Z,26.20
2023-03-04T06:14:05.950Z,25.53
2023-03-04T06:16:33.427Z,27.38
2023-03-04T06:19:00.625Z,22.37
2023-03-04T06:21:27.685Z,28.00
2023-03-04T06:23:54.713Z,27.25
2023-03-04T06:26:21.910Z,24.63
2023-03-04T06:28:49.195Z,24.35
2023-03-04T06:31:16.325Z,27.48
2023-03-04T06:33:43.428Z,27.50
2023-03-04T06:36:10.629Z,29.63
2023-03-04T06:38:37.751Z,32.95
2023-03-04T06:41:12.388Z,28.75
2023-03-04T06:43:39.902Z,28.00
2023-03-04T06:46:08.546Z,25.90
2023-03-04T06:48:36.075Z,33.30
2023-03-04T06:51:11.244Z,28.35
2023-03-04T06:53:39.662Z,30.75
2023-03-04T06:56:08.149Z,27.02
2023-03-04T06:58:35.660Z,28.17
2023-03-04T07:01:19.740Z,27.58
2023-03-04T07:03:48.255Z,27.88
2023-03-04T07:06:17.672Z,25.45
2023-03-04T07:08:45.434Z,26.33
2023-03-04T07:11:12.628Z,27.95
2023-03-04T07:13:40.246Z,26.83
2023-03-04T07:16:12.879Z,27.55
2023-03-04T07:18:41.002Z,24.30
2023-03-04T07:21:08.382Z,22.88
2023-03-04T07:23:36.322Z,23.10
2023-03-04T07:26:04.303Z,19.75
2023-03-04T07:28:31.502Z,19.98
2023-03-04T07:31:08.949Z,20.13
2023-03-04T07:33:36.222Z,22.45
2023-03-04T07:36:03.430Z,22.13
2023-03-04T07:38:30.470Z,19.52
2023-03-04T07:41:00.706Z,20.83
2023-03-04T07:43:27.913Z,18.85
2023-03-04T07:46:00.916Z,21.90
2023-03-04T07:51:05.038Z,21.33
2023-03-04T07:53:33.429Z,20.42
2023-03-04T07:56:02.537Z,19.08
2023-03-04T07:58:30.003Z,19.77
2023-03-04T08:00:57.025Z,21.77
2023-03-04T08:03:24.863Z,17.58
2023-03-04T08:05:52.307Z,20.75
2023-03-04T08:08:19.425Z,19.75
2023-03-04T08:10:46.789Z,18.55
2023-03-04T08:13:13.919Z,21.27
2023-03-04T08:15:42.912Z,19.50
2023-03-04T08:18:10.367Z,23.50
2023-03-04T08:20:37.432Z,21.42
2023-03-04T08:23:04.446Z,16.92
2023-03-04T08:25:31.569Z,19.23
2023-03-04T08:27:59.484Z,18.52
2023-03-04T08:30:26.651Z,17.55
2023-03-04T08:32:54.225Z,15.20
2023-03-04T08:35:21.434Z,17.45
2023-03-04T08:37:48.895Z,13.85
2023-03-04T08:40:15.969Z,16.33
2023-03-04T08:42:42.927Z,17.48
2023-03-04T08:45:11.810Z,16.23
2023-03-04T08:47:39.244Z,18.25
2023-03-04T08:50:07.564Z,18.05
2023-03-04T08:52:34.844Z,15.05
2023-03-04T08:55:02.363Z,15.27
2023-03-04T08:57:29.944Z,13.50
2023-03-04T08:59:57.095Z,17.98
2023-03-04T09:02:24.211Z,15.48
2023-03-04T09:04:51.416Z,16.00
2023-03-04T09:07:18.606Z,14.13
2023-03-04T09:09:45.884Z,12.18
2023-03-04T09:12:13.165Z,15.18
2023-03-04T09:14:40.518Z,16.48
2023-03-04T09:17:07.888Z,13.60
2023-03-04T09:19:35.019Z,14.18
2023-03-04T09:22:02.445Z,13.88
2023-03-04T09:24:29.647Z,15.65
2023-03-04T09:26:56.846Z,13.40
2023-03-04T09:29:24.045Z,10.77
2023-03-04T09:31:51.245Z,14.25
2023-03-04T09:34:18.365Z,10.70
2023-03-04T09:36:45.409Z,12.10
2023-03-04T09:39:12.444Z,11.02
2023-03-04T09:41:48.527Z,14.18
2023-03-04T09:44:32.613Z,10.45
2023-03-04T09:47:03.514Z,10.90
2023-03-04T09:49:31.328Z,11.27
2023-03-04T09:52:03.972Z,12.00
2023-03-04T09:55:05.091Z,7.90
2023-03-04T09:57:41.086Z,9.23
2023-03-04T10:00:35.202Z,10.35
2023-03-04T10:03:17.715Z,10.55
2023-03-04T10:06:08.047Z,11.50
2023-03-04T10:08:50.126Z,8.93
2023-03-04T10:11:36.682Z,7.78
2023-03-04T10:14:21.933Z,7.45
2023-03-04T10:16:51.655Z,11.18
2023-03-04T10:19:29.124Z,8.25
2023-03-04T10:21:57.162Z,13.73
2023-03-04T10:24:29.005Z,8.50
2023-03-04T10:27:12.442Z,14.07
2023-03-04T10:29:39.963Z,10.27
2023-03-04T10:32:12.540Z,13.48
2023-03-04T10:34:39.713Z,7.88
2023-03-04T10:37:08.831Z,11.00
2023-03-04T10:39:44.353Z,10.82
2023-03-04T10:42:14.741Z,10.82
2023-03-04T10:44:52.354Z,11.82
2023-03-04T10:47:19.787Z,12.88
2023-03-04T10:49:58.987Z,8.45
2023-03-04T10:52:36.348Z,9.75
2023-03-04T10:55:07.630Z,8.05
2023-03-04T10:57:41.873Z,11.37
2023-03-04T11:00:17.960Z,9.98
2023-03-04T11:02:47.249Z,12.77
2023-03-04T11:05:26.667Z,11.18
2023-03-04T11:08:00.048Z,12.20
2023-03-04T11:10:40.774Z,10.38
2023-03-04T11:13:13.861Z,8.30
2023-03-04T11:16:03.147Z,8.23
2023-03-04T11:18:44.500Z,10.60
2023-03-04T11:21:17.541Z,9.77
2023-03-04T11:23:51.302Z,7.28
2023-03-04T11:26:31.863Z,11.02
2023-03-04T11:29:08.739Z,8.52
2023-03-04T11:31:41.349Z,10.73
2023-03-04T11:34:17.221Z,8.00
2023-03-04T11:37:05.723Z,10.55
2023-03-04T11:39:46.678Z,10.60
2023-03-04T11:42:38.917Z,7.25
2023-03-04T11:45:28.479Z,6.97
2023-03-04T11:48:20.924Z,9.00
2023-03-04T11:50:58.370Z,8.00
2023-03-04T11:53:50.456Z,8.43
2023-03-04T11:56:32.537Z,9.65
2023-03-04T11:59:18.204Z,10.88
2023-03-04T12:01:51.484Z,9.75
2023-03-04T12:04:55.513Z,7.85
2023-03-04T12:07:37.489Z,9.68
2023-03-04T12:10:30.842Z,7.75
2023-03-04T12:13:07.171Z,8.15
2023-03-04T12:15:48.060Z,9.77
2023-03-04T12:18:39.724Z,8.05
2023-03-04T12:21:12.607Z,12.32
2023-03-04T12:24:21.893Z,9.75
2023-03-04T12:26:55.811Z,12.15
2023-03-04T12:30:05.845Z,9.00
2023-03-04T12:32:36.031Z,12.45
2023-03-04T12:35:29.755Z,8.73
2023-03-04T12:38:01.963Z,9.57
2023-03-04T12:41:07.083Z,7.82
2023-03-04T12:43:37.886Z,7.50
2023-03-04T12:46:18.560Z,10.77
2023-03-04T12:49:15.003Z,7.97
2023-03-04T12:51:55.164Z,11.30
2023-03-04T12:54:33.083Z,9.50
2023-03-04T12:57:24.307Z,13.30
2023-03-04T13:00:06.933Z,12.27
2023-03-04T13:03:17.826Z,10.38
2023-03-04T13:06:29.013Z,11.57
2023-03-04T13:09:14.684Z,7.95
2023-03-04T13:12:02.929Z,8.07
2023-03-04T13:14:32.284Z,7.18
2023-03-04T13:17:02.225Z,8.48
2023-03-04T13:19:48.294Z,10.70
2023-03-04T13:22:34.129Z,9.07
2023-03-04T13:25:29.483Z,10.93
2023-03-04T13:28:05.479Z,11.15
2023-03-04T13:30:32.882Z,8.75
2023-03-04T13:33:09.019Z,8.98
2023-03-04T13:35:54.994Z,10.05
2023-03-04T13:38:28.392Z,8.13
2023-03-04T13:41:21.169Z,10.02
2023-03-04T13:43:56.525Z,11.27
2023-03-04T13:46:24.226Z,9.80
2023-03-04T13:48:54.126Z,8.93
2023-03-04T13:51:35.162Z,8.95
2023-03-04T13:54:03.326Z,6.47
2023-03-04T13:56:37.753Z,9.55
2023-03-04T13:59:15.399Z,7.40
2023-03-04T14:01:57.696Z,6.60
2023-03-04T14:04:37.886Z,7.90
2023-03-04T14:07:35.431Z,8.70
2023-03-04T14:10:15.800Z,9.32
2023-03-04T14:12:50.371Z,9.85
2023-03-04T14:15:31.199Z,9.98
2023-03-04T14:18:02.845Z,12.45
2023-03-04T14:20:33.474Z,9.25
2023-03-04T14:23:03.965Z,9.10
2023-03-04T14:25:36.458Z,11.88
2023-03-04T14:28:13.882Z,10.73
2023-03-04T14:30:44.234Z,11.40
2023-03-04T14:33:44.603Z,13.95
2023-03-04T14:36:19.325Z,11.27
2023-03-04T14:38:53.981Z,11.48
2023-03-04T14:41:44.763Z,10.32
2023-03-04T14:44:37.542Z,13.55
2023-03-04T14:47:20.567Z,10.82
2023-03-04T14:49:48.766Z,11.63
2023-03-04T14:52:43.165Z,7.90
2023-03-04T14:55:20.188Z,6.53
2023-03-04T14:57:58.378Z,11.15
2023-03-04T15:00:35.418Z,8.80
2023-03-04T15:03:10.449Z,6.95
2023-03-04T15:05:37.648Z,8.57
2023-03-04T15:08:17.649Z,10.35
2023-03-04T15:10:56.858Z,7.00
2023-03-04T15:13:44.468Z,6.60
2023-03-04T15:16:14.750Z,9.10
2023-03-04T15:19:06.137Z,13.20
2023-03-04T15:21:40.767Z,9.10
2023-03-04T15:24:10.125Z,9.43
2023-03-04T15:26:42.850Z,13.20
2023-03-04T15:29:20.863Z,10.88
2023-03-04T15:31:49.007Z,8.48
2023-03-04T15:34:18.765Z,9.23
2023-03-04T15:36:51.168Z,4.85
2023-03-04T15:41:48.682Z,10.88
2023-03-04T15:44:17.079Z,9.32
2023-03-04T15:46:44.284Z,9.85
2023-03-04T15:49:12.024Z,7.32
2023-03-04T15:51:39.403Z,6.70
2023-03-04T15:54:14.609Z,9.40
2023-03-04T15:56:43.344Z,8.82
2023-03-04T15:59:14.451Z,7.40
2023-03-04T16:01:46.636Z,5.53
2023-03-04T16:04:18.726Z,13.23
2023-03-04T16:06:47.349Z,13.93
2023-03-04T16:09:17.383Z,11.85
2023-03-04T16:11:47.403Z,12.60
2023-03-04T16:14:15.643Z,9.95
2023-03-04T16:16:43.792Z,7.00
2023-03-04T16:19:10.561Z,13.35
2023-03-04T16:21:37.178Z,11.95
2023-03-04T16:24:04.090Z,11.45
2023-03-04T16:26:31.446Z,9.38
2023-03-04T16:28:58.242Z,7.25
2023-03-04T16:31:24.853Z,9.98
2023-03-04T16:33:51.496Z,6.53
2023-03-04T16:36:23.779Z,7.55
2023-03-04T16:38:51.242Z,5.60
2023-03-04T16:41:28.431Z,5.70
2023-03-04T16:43:56.939Z,6.47
2023-03-04T16:46:24.057Z,11.23
2023-03-04T16:48:50.758Z,11.48
2023-03-04T16:51:20.745Z,15.40
2023-03-04T16:53:51.095Z,10.15
2023-03-04T16:56:19.410Z,9.45
2023-03-04T16:58:46.807Z,9.25
2023-03-04T17:01:28.482Z,9.23
2023-03-04T17:03:55.687Z,9.55
2023-03-04T17:06:23.877Z,4.57
2023-03-04T17:08:50.941Z,7.03
2023-03-04T17:11:20.796Z,9.43
2023-03-04T17:13:48.071Z,8.85
2023-03-04T17:16:15.319Z,10.18
2023-03-04T17:18:42.870Z,10.63
2023-03-04T17:21:13.142Z,7.60
2023-03-04T17:23:39.771Z,9.18
2023-03-04T17:26:06.870Z,13.07
2023-03-04T17:28:33.642Z,9.13
2023-03-04T17:31:00.285Z,9.13
2023-03-04T17:33:27.455Z,10.55
2023-03-04T17:35:54.188Z,12.57
2023-03-04T17:38:20.828Z,8.82
2023-03-04T17:40:47.444Z,10.05
2023-03-04T17:43:14.103Z,11.70
2023-03-04T17:45:42.095Z,23.13
2023-03-04T17:48:15.147Z,15.70
2023-03-04T17:50:49.929Z,20.48
2023-03-04T17:53:16.990Z,19.65
2023-03-04T17:55:51.617Z,23.00
2023-03-04T17:58:18.940Z,21.17
2023-03-04T18:00:46.083Z,20.30
2023-03-04T18:03:13.656Z,18.10
2023-03-04T18:05:40.516Z,15.90
2023-03-04T18:08:07.189Z,17.42
2023-03-04T18:10:34.026Z,18.70
2023-03-04T18:13:00.879Z,21.63
2023-03-04T18:15:27.507Z,19.27
2023-03-04T18:17:54.115Z,20.60
2023-03-04T18:20:20.850Z,16.45
2023-03-04T18:22:47.508Z,15.43
2023-03-04T18:25:14.125Z,15.77
2023-03-04T18:27:42.015Z,17.55
2023-03-04T18:30:12.340Z,16.13
2023-03-04T18:32:51.298Z,22.67
2023-03-04T18:35:19.595Z,30.33
2023-03-04T18:37:46.420Z,19.00
2023-03-04T18:40:13.658Z,13.57
2023-03-04T18:42:40.463Z,11.93
2023-03-04T18:45:08.035Z,6.22
2023-03-04T18:47:34.715Z,7.57
2023-03-04T18:50:01.363Z,7.78
2023-03-04T18:52:28.610Z,6.68
2023-03-04T18:54:55.177Z,5.30
2023-03-04T18:57:22.002Z,8.52
2023-03-04T19:00:01.216Z,7.35
2023-03-04T19:02:46.508Z,10.23
2023-03-04T19:05:21.294Z,10.88
2023-03-04T19:07:48.806Z,7.30
2023-03-04T19:10:15.659Z,7.70
2023-03-04T19:12:42.263Z,8.50
2023-03-04T19:15:10.302Z,9.82
2023-03-04T19:17:37.940Z,8.40
2023-03-04T19:20:07.108Z,12.13
2023-03-04T19:22:33.884Z,9.52
2023-03-04T19:25:00.658Z,10.80
2023-03-04T19:27:27.237Z,8.35
2023-03-04T19:29:53.821Z,6.95
2023-03-04T19:32:20.508Z,10.38
2023-03-04T19:34:47.685Z,12.68
2023-03-04T19:37:15.286Z,11.32
2023-03-04T19:39:45.383Z,8.50
2023-03-04T19:42:13.143Z,16.48
2023-03-04T19:44:39.790Z,14.57
2023-03-04T19:47:06.624Z,13.02
2023-03-04T19:49:34.348Z,15.13
2023-03-04T19:52:01.509Z,10.38
2023-03-04T19:54:29.408Z,9.02
2023-03-04T19:56:56.399Z,9.32
2023-03-04T19:59:23.113Z,8.43
2023-03-04T20:01:49.842Z,8.95
2023-03-04T20:04:18.585Z,9.60
2023-03-04T20:06:46.816Z,7.45
2023-03-04T20:09:14.969Z,6.32
2023-03-04T20:11:56.566Z,7.60
2023-03-04T20:14:25.039Z,10.00
2023-03-04T20:16:51.698Z,6.93
2023-03-04T20:19:18.379Z,6.22
2023-03-04T20:21:44.962Z,7.85
2023-03-04T20:24:11.782Z,7.53
2023-03-04T20:26:39.535Z,10.20
2023-03-04T20:29:06.322Z,6.07
2023-03-04T20:31:38.355Z,9.02
2023-03-04T20:34:06.324Z,9.73
2023-03-04T20:36:33.187Z,9.05
2023-03-04T20:39:03.353Z,6.68
2023-03-04T20:41:32.948Z,10.95
2023-03-04T20:43:59.576Z,9.15
2023-03-04T20:46:41.832Z,6.57
2023-03-04T20:49:16.007Z,9.20
2023-03-04T20:51:43.250Z,7.85
2023-03-04T20:54:10.294Z,7.07
2023-03-04T20:56:38.099Z,7.35
2023-03-04T20:59:08.174Z,11.95
2023-03-04T21:01:36.766Z,7.93
2023-03-04T21:04:04.081Z,11.65
2023-03-04T21:06:31.668Z,8.93
2023-03-04T21:09:04.738Z,9.55
2023-03-04T21:13:57.917Z,10.35
2023-03-04T21:16:27.933Z,6.50
2023-03-04T21:18:54.570Z,10.05
2023-03-04T21:21:28.916Z,11.50
2023-03-04T21:23:57.815Z,7.50
2023-03-04T21:26:25.015Z,9.23
2023-03-04T21:28:53.869Z,10.18
2023-03-04T21:31:26.237Z,9.93
2023-03-04T21:33:58.627Z,10.80
2023-03-04T21:36:25.236Z,10.43
2023-03-04T21:38:52.568Z,9.75
2023-03-04T21:41:21.926Z,10.77
2023-03-04T21:43:49.587Z,11.88
2023-03-04T21:46:17.457Z,9.65
2023-03-04T21:48:44.882Z,9.70
2023-03-04T21:51:14.338Z,13.05
2023-03-04T21:53:43.264Z,11.70
2023-03-04T21:56:11.915Z,12.32
2023-03-04T21:58:42.072Z,9.85
2023-03-04T22:01:14.120Z,11.02
2023-03-04T22:03:41.508Z,17.17
2023-03-04T22:06:10.252Z,11.73
2023-03-04T22:08:37.745Z,10.38
2023-03-04T22:11:07.063Z,11.60
2023-03-04T22:13:34.380Z,12.55
2023-03-04T22:16:01.098Z,12.10
2023-03-04T22:18:28.210Z,13.05
2023-03-04T22:21:01.811Z,11.57
2023-03-04T22:23:29.081Z,8.98
2023-03-04T22:25:55.909Z,13.55
2023-03-04T22:28:25.088Z,18.45
2023-03-04T22:30:52.030Z,14.05
2023-03-04T22:33:18.647Z,12.30
2023-03-04T22:35:45.262Z,15.73
2023-03-04T22:38:11.856Z,15.23
2023-03-04T22:40:38.535Z,15.93
2023-03-04T22:43:05.116Z,15.20
2023-03-04T22:45:32.883Z,15.90
2023-03-04T22:47:59.971Z,21.13
2023-03-04T22:50:26.736Z,20.30
2023-03-04T22:52:53.895Z,22.42
2023-03-04T22:55:22.696Z,18.30
2023-03-04T22:57:49.340Z,22.80
2023-03-04T23:00:24.027Z,24.40
2023-03-04T23:02:51.532Z,22.77
2023-03-04T23:05:22.184Z,27.05
2023-03-04T23:07:50.083Z,21.10
2023-03-04T23:10:21.463Z,23.98
2023-03-04T23:12:48.307Z,23.00
2023-03-04T23:15:17.322Z,27.52
2023-03-04T23:17:44.469Z,19.95
2023-03-04T23:20:13.140Z,24.25
2023-03-04T23:22:39.741Z,19.77
2023-03-04T23:25:06.779Z,24.38
2023-03-04T23:27:33.419Z,23.65
2023-03-04T23:30:00.444Z,21.48
2023-03-04T23:32:27.149Z,23.05
2023-03-04T23:34:55.424Z,23.17
2023-03-04T23:37:23.017Z,21.77
2023-03-04T23:39:50.363Z,21.65
2023-03-04T23:42:17.345Z,20.05
2023-03-04T23:44:43.974Z,21.52
2023-03-04T23:47:10.666Z,21.75
2023-03-04T23:49:37.339Z,23.20
2023-03-04T23:52:04.203Z,27.77
2023-03-04T23:54:31.305Z,24.75
2023-03-04T23:57:00.431Z,26.55
2023-03-04T23:59:28.445Z,22.33
